Time;durP1;ratioP1;P1;durP2;ratioP2;P2;SDS_P1;SDS_P2;PMS_P1;PMS_P2;Temp;Humidity;BMP_temperature;BMP_pressure;BME280_temperature;BME280_humidity;BME280_pressure;Samples;Min_cycle;Max_cycle;Signal;HPM_P1;HPM_P2
2022/03/16 00:01:55;;;;;;;20.42;18.27;;;;;;;;;;5066980;28;20040;-84
2022/03/16 00:04:24;;;;;;;21.55;18.23;;;;;;;;;;5077945;28;20140;-86
2022/03/16 00:06:50;;;;;;;20.17;18.08;;;;;;;;;;5057875;28;20066;-85
2022/03/16 00:09:16;;;;;;;19.85;16.65;;;;;;;;;;5058769;28;20159;-85
2022/03/16 00:11:42;;;;;;;20.38;16.75;;;;;;;;;;5046591;28;20051;-85
2022/03/16 00:14:08;;;;;;;18.83;16.25;;;;;;;;;;5051938;28;20059;-85
2022/03/16 00:16:34;;;;;;;17.23;15.32;;;;;;;;;;5047585;28;20123;-85
2022/03/16 00:19:00;;;;;;;17.25;15.45;;;;;;;;;;5049836;28;20040;-83
2022/03/16 00:21:26;;;;;;;17.80;15.90;;;;;;;;;;5068074;28;20049;-85
2022/03/16 00:23:52;;;;;;;18.70;16.65;;;;;;;;;;5068934;28;20087;-85
2022/03/16 00:26:19;;;;;;;17.55;15.20;;;;;;;;;;5047378;28;20072;-85
2022/03/16 00:28:45;;;;;;;19.65;15.80;;;;;;;;;;5049220;28;20048;-85
2022/03/16 00:31:13;;;;;;;18.52;16.55;;;;;;;;;;5063860;28;20043;-85
2022/03/16 00:33:39;;;;;;;16.50;14.80;;;;;;;;;;5066520;28;20098;-84
2022/03/16 00:36:05;;;;;;;16.15;14.55;;;;;;;;;;5035197;28;20047;-85
2022/03/16 00:38:31;;;;;;;16.45;14.75;;;;;;;;;;5050481;28;20139;-85
2022/03/16 00:40:57;;;;;;;17.23;15.40;;;;;;;;;;5068426;28;20115;-85
2022/03/16 00:43:23;;;;;;;17.45;15.57;;;;;;;;;;5065809;28;20409;-85
2022/03/16 00:45:49;;;;;;;16.52;14.82;;;;;;;;;;5061759;28;20406;-84
2022/03/16 00:48:18;;;;;;;16.48;14.77;;;;;;;;;;5049404;28;20110;-84
2022/03/16 00:50:44;;;;;;;17.85;15.35;;;;;;;;;;5049426;28;20044;-84
2022/03/16 00:53:10;;;;;;;17.75;15.77;;;;;;;;;;5050403;28;20090;-84
2022/03/16 00:55:36;;;;;;;16.63;15.00;;;;;;;;;;5072204;28;20434;-84
2022/03/16 00:58:02;;;;;;;16.75;15.05;;;;;;;;;;5054365;28;20037;-84
2022/03/16 01:00:28;;;;;;;15.65;14.05;;;;;;;;;;5071826;28;20102;-84
2022/03/16 01:02:55;;;;;;;15.93;14.27;;;;;;;;;;5072273;28;20041;-85
2022/03/16 01:05:23;;;;;;;16.65;15.02;;;;;;;;;;5070518;28;20469;-85
2022/03/16 01:07:50;;;;;;;16.95;15.27;;;;;;;;;;5071079;28;20476;-85
2022/03/16 01:10:16;;;;;;;16.42;14.73;;;;;;;;;;5062751;28;20051;-85
2022/03/16 01:12:42;;;;;;;16.50;14.77;;;;;;;;;;5046770;28;20056;-85
2022/03/16 01:15:08;;;;;;;16.92;15.23;;;;;;;;;;5068626;28;20044;-85
2022/03/16 01:17:34;;;;;;;17.05;15.00;;;;;;;;;;5070675;28;20033;-84
2022/03/16 01:20:00;;;;;;;17.27;15.48;;;;;;;;;;5070762;28;20097;-85
2022/03/16 01:22:26;;;;;;;16.83;15.13;;;;;;;;;;5069900;28;20041;-85
2022/03/16 01:24:52;;;;;;;17.13;15.27;;;;;;;;;;5053782;28;20044;-85
2022/03/16 01:27:18;;;;;;;16.70;15.07;;;;;;;;;;5071888;28;20049;-85
2022/03/16 01:29:44;;;;;;;16.23;13.88;;;;;;;;;;5049619;28;20063;-85
2022/03/16 01:32:10;;;;;;;16.42;14.73;;;;;;;;;;5054361;28;20645;-85
2022/03/16 01:34:36;;;;;;;16.88;15.10;;;;;;;;;;5068826;28;20088;-86
2022/03/16 01:37:03;;;;;;;17.45;15.65;;;;;;;;;;5068690;28;20052;-85
2022/03/16 01:39:30;;;;;;;16.98;15.18;;;;;;;;;;5069458;28;20052;-85
2022/03/16 01:41:56;;;;;;;17.58;15.77;;;;;;;;;;5069153;28;20064;-85
2022/03/16 01:44:42;;;;;;;17.92;15.30;;;;;;;;;;5050931;28;20041;-85
2022/03/16 01:47:08;;;;;;;16.95;15.25;;;;;;;;;;5050047;28;20080;-85
2022/03/16 01:49:34;;;;;;;17.33;15.30;;;;;;;;;;5068323;28;20047;-86
2022/03/16 01:52:00;;;;;;;16.23;14.55;;;;;;;;;;5067061;28;20045;-85
2022/03/16 01:54:26;;;;;;;18.60;15.57;;;;;;;;;;5050878;28;20056;-86
2022/03/16 01:56:52;;;;;;;16.77;15.07;;;;;;;;;;5071047;28;20457;-85
2022/03/16 01:59:18;;;;;;;16.33;14.52;;;;;;;;;;5052453;28;20029;-85
2022/03/16 02:01:44;;;;;;;18.00;14.30;;;;;;;;;;5066698;28;20045;-84
2022/03/16 02:04:10;;;;;;;17.77;15.63;;;;;;;;;;5067971;28;20159;-84
2022/03/16 02:06:36;;;;;;;18.30;15.85;;;;;;;;;;5068792;28;20051;-85
2022/03/16 02:09:04;;;;;;;19.58;16.35;;;;;;;;;;5066780;28;20484;-85
2022/03/16 02:11:30;;;;;;;17.92;16.02;;;;;;;;;;5062079;28;22328;-85
2022/03/16 02:13:56;;;;;;;17.50;15.73;;;;;;;;;;5064607;28;20053;-85
2022/03/16 02:16:22;;;;;;;17.92;16.02;;;;;;;;;;5050413;28;20045;-85
2022/03/16 02:18:48;;;;;;;17.80;16.02;;;;;;;;;;5047412;28;20044;-85
2022/03/16 02:21:16;;;;;;;17.92;15.90;;;;;;;;;;5056378;28;20048;-85
2022/03/16 02:23:42;;;;;;;18.52;16.58;;;;;;;;;;5078647;28;20096;-84
2022/03/16 02:26:12;;;;;;;19.73;16.80;;;;;;;;;;5058080;28;20060;-85
2022/03/16 02:28:38;;;;;;;18.00;16.20;;;;;;;;;;5066113;28;20105;-84
2022/03/16 02:31:05;;;;;;;18.58;16.65;;;;;;;;;;5070522;28;20082;-84
2022/03/16 02:33:31;;;;;;;18.73;16.83;;;;;;;;;;5063589;28;20056;-85
2022/03/16 02:35:57;;;;;;;18.48;16.50;;;;;;;;;;5069352;28;20048;-86
2022/03/16 02:38:23;;;;;;;18.85;16.45;;;;;;;;;;5049691;28;20047;-85
2022/03/16 02:40:50;;;;;;;18.63;16.05;;;;;;;;;;5049951;28;20041;-85
2022/03/16 02:43:16;;;;;;;19.23;16.33;;;;;;;;;;5066890;28;20770;-85
2022/03/16 02:45:42;;;;;;;17.75;15.95;;;;;;;;;;5053143;28;20129;-85
2022/03/16 02:48:08;;;;;;;21.60;17.42;;;;;;;;;;5053604;28;20074;-85
2022/03/16 02:50:37;;;;;;;18.95;16.50;;;;;;;;;;5071348;28;20032;-85
2022/03/16 02:53:03;;;;;;;18.45;16.23;;;;;;;;;;5091686;28;20037;-85
2022/03/16 02:55:29;;;;;;;18.35;16.55;;;;;;;;;;5090877;28;20104;-85
2022/03/16 02:57:55;;;;;;;18.00;16.10;;;;;;;;;;5056563;28;20052;-85
2022/03/16 03:00:21;;;;;;;19.52;16.55;;;;;;;;;;5063227;28;20464;-85
2022/03/16 03:02:47;;;;;;;19.60;17.52;;;;;;;;;;5049718;28;20044;-85
2022/03/16 03:05:13;;;;;;;19.10;17.20;;;;;;;;;;5069233;28;20075;-85
2022/03/16 03:07:39;;;;;;;19.65;17.65;;;;;;;;;;5065311;28;20032;-85
2022/03/16 03:10:06;;;;;;;18.50;16.55;;;;;;;;;;5051481;28;20380;-85
2022/03/16 03:12:35;;;;;;;19.58;17.50;;;;;;;;;;5066324;28;20048;-85
2022/03/16 03:15:03;;;;;;;20.15;18.05;;;;;;;;;;5069511;28;20040;-85
2022/03/16 03:17:29;;;;;;;20.52;18.25;;;;;;;;;;5067244;28;20057;-85
2022/03/16 03:19:58;;;;;;;21.40;18.85;;;;;;;;;;5046825;28;20045;-85
2022/03/16 03:22:28;;;;;;;21.33;18.92;;;;;;;;;;5044451;28;20468;-85
2022/03/16 03:24:54;;;;;;;22.85;18.23;;;;;;;;;;5065186;28;20056;-85
2022/03/16 03:27:20;;;;;;;19.90;17.75;;;;;;;;;;5067345;28;20463;-85
2022/03/16 03:29:46;;;;;;;22.27;19.15;;;;;;;;;;5066571;28;20127;-85
2022/03/16 03:32:12;;;;;;;22.05;19.75;;;;;;;;;;5068838;28;20040;-84
2022/03/16 03:34:39;;;;;;;20.88;18.60;;;;;;;;;;5068356;28;20044;-84
2022/03/16 03:37:06;;;;;;;21.75;19.45;;;;;;;;;;5044299;28;20455;-85
2022/03/16 03:39:32;;;;;;;22.05;19.73;;;;;;;;;;5049132;28;20045;-85
2022/03/16 03:41:58;;;;;;;21.88;19.65;;;;;;;;;;5054123;28;20123;-82
2022/03/16 03:44:24;;;;;;;22.00;19.65;;;;;;;;;;5050046;28;20075;-85
2022/03/16 03:46:50;;;;;;;22.20;19.52;;;;;;;;;;5062218;28;20066;-84
2022/03/16 03:49:16;;;;;;;22.60;19.50;;;;;;;;;;5043920;28;20538;-85
2022/03/16 03:51:43;;;;;;;21.75;19.55;;;;;;;;;;5064823;28;20052;-85
2022/03/16 03:54:09;;;;;;;22.63;19.70;;;;;;;;;;5065005;28;20055;-85
2022/03/16 03:56:35;;;;;;;21.00;18.90;;;;;;;;;;5065228;28;20048;-85
2022/03/16 03:59:01;;;;;;;21.45;19.17;;;;;;;;;;5068446;28;20036;-84
2022/03/16 04:01:27;;;;;;;22.33;20.10;;;;;;;;;;5050255;28;20052;-85
2022/03/16 04:03:53;;;;;;;23.23;20.42;;;;;;;;;;5063130;28;20553;-85
2022/03/16 04:06:19;;;;;;;22.30;19.88;;;;;;;;;;5065745;28;20045;-85
2022/03/16 04:08:46;;;;;;;23.73;21.23;;;;;;;;;;5068230;28;20094;-84
2022/03/16 04:11:12;;;;;;;22.40;20.10;;;;;;;;;;5063716;28;20036;-86
2022/03/16 04:13:38;;;;;;;23.25;20.75;;;;;;;;;;5068507;28;20059;-84
2022/03/16 04:16:04;;;;;;;24.08;21.67;;;;;;;;;;5061742;28;20045;-85
2022/03/16 04:18:30;;;;;;;22.25;19.90;;;;;;;;;;5067048;28;20123;-85
2022/03/16 04:20:57;;;;;;;23.20;20.90;;;;;;;;;;5052478;28;20493;-85
2022/03/16 04:23:24;;;;;;;23.77;20.73;;;;;;;;;;5067293;28;20087;-84
2022/03/16 04:25:53;;;;;;;24.98;22.35;;;;;;;;;;5048361;28;20040;-84
2022/03/16 04:28:19;;;;;;;23.52;21.02;;;;;;;;;;5066382;28;20037;-84
2022/03/16 04:30:45;;;;;;;26.50;22.65;;;;;;;;;;5061867;28;20095;-85
2022/03/16 04:33:11;;;;;;;24.52;21.92;;;;;;;;;;5055274;28;20048;-85
2022/03/16 04:35:38;;;;;;;26.02;22.95;;;;;;;;;;5064777;28;20043;-84
2022/03/16 04:38:08;;;;;;;25.55;22.92;;;;;;;;;;5078054;28;20036;-84
2022/03/16 04:40:34;;;;;;;24.80;22.02;;;;;;;;;;5048746;28;20419;-84
2022/03/16 04:43:00;;;;;;;24.42;21.85;;;;;;;;;;5066227;28;20637;-85
2022/03/16 04:45:26;;;;;;;24.98;22.58;;;;;;;;;;5048318;28;21652;-84
2022/03/16 04:47:52;;;;;;;24.00;21.45;;;;;;;;;;5048823;28;20041;-85
2022/03/16 04:50:19;;;;;;;25.85;23.20;;;;;;;;;;5062977;28;20079;-85
2022/03/16 04:52:46;;;;;;;24.52;21.83;;;;;;;;;;5065201;28;20053;-85
2022/03/16 04:55:12;;;;;;;24.70;22.13;;;;;;;;;;5069814;28;20076;-85
2022/03/16 04:57:40;;;;;;;22.98;20.50;;;;;;;;;;5066492;28;20055;-84
2022/03/16 05:00:06;;;;;;;24.60;21.85;;;;;;;;;;5063460;28;20109;-84
2022/03/16 05:02:32;;;;;;;25.10;21.58;;;;;;;;;;5065596;28;20048;-84
2022/03/16 05:04:58;;;;;;;24.67;21.70;;;;;;;;;;5066625;28;20105;-84
2022/03/16 05:07:24;;;;;;;24.60;22.00;;;;;;;;;;5048079;28;20043;-84
2022/03/16 05:09:50;;;;;;;23.92;21.50;;;;;;;;;;5049505;28;20040;-85
2022/03/16 05:12:16;;;;;;;24.00;21.15;;;;;;;;;;5048664;28;20473;-84
2022/03/16 05:14:42;;;;;;;24.02;21.48;;;;;;;;;;5045424;28;20044;-84
2022/03/16 05:17:08;;;;;;;23.58;20.67;;;;;;;;;;5047681;28;20487;-84
2022/03/16 05:19:37;;;;;;;24.75;22.00;;;;;;;;;;5063179;28;20045;-85
2022/03/16 05:22:03;;;;;;;23.13;20.75;;;;;;;;;;5046965;28;20041;-84
2022/03/16 05:24:29;;;;;;;23.75;21.25;;;;;;;;;;5064085;28;20037;-85
2022/03/16 05:26:55;;;;;;;24.67;22.10;;;;;;;;;;5060985;28;20614;-85
2022/03/16 05:29:21;;;;;;;24.73;22.10;;;;;;;;;;5045752;28;20097;-84
2022/03/16 05:31:47;;;;;;;25.73;23.02;;;;;;;;;;5050074;28;20037;-85
2022/03/16 05:34:13;;;;;;;25.67;21.88;;;;;;;;;;5049232;28;20048;-84
2022/03/16 05:36:39;;;;;;;24.33;21.50;;;;;;;;;;5064215;28;20043;-84
2022/03/16 05:39:05;;;;;;;24.67;22.17;;;;;;;;;;5059950;28;20484;-85
2022/03/16 05:41:31;;;;;;;24.08;21.55;;;;;;;;;;5066000;28;20044;-84
2022/03/16 05:43:57;;;;;;;25.63;22.60;;;;;;;;;;5049194;28;20047;-84
2022/03/16 05:46:23;;;;;;;26.77;23.50;;;;;;;;;;5065930;28;20041;-84
2022/03/16 05:48:50;;;;;;;26.45;23.10;;;;;;;;;;5069523;28;20048;-84
2022/03/16 05:51:16;;;;;;;27.25;23.33;;;;;;;;;;5068771;28;20748;-84
2022/03/16 05:53:42;;;;;;;26.40;23.52;;;;;;;;;;5054289;28;20040;-83
2022/03/16 05:56:08;;;;;;;24.13;21.52;;;;;;;;;;5050637;28;20033;-83
2022/03/16 05:58:34;;;;;;;25.23;22.20;;;;;;;;;;5050035;28;20045;-84
2022/03/16 06:01:00;;;;;;;26.10;23.55;;;;;;;;;;5051173;28;20090;-84
2022/03/16 06:03:27;;;;;;;26.83;23.75;;;;;;;;;;5067291;28;20045;-84
2022/03/16 06:05:53;;;;;;;26.42;23.63;;;;;;;;;;5064050;28;20293;-83
2022/03/16 06:08:19;;;;;;;26.33;23.42;;;;;;;;;;5049608;28;20117;-84
2022/03/16 06:10:45;;;;;;;24.40;21.67;;;;;;;;;;5067368;28;20572;-83
2022/03/16 06:13:11;;;;;;;25.23;21.50;;;;;;;;;;5068829;28;20048;-84
2022/03/16 06:15:39;;;;;;;27.55;24.15;;;;;;;;;;5067632;28;20377;-83
2022/03/16 06:18:05;;;;;;;26.40;23.63;;;;;;;;;;5059891;28;20121;-85
2022/03/16 06:20:34;;;;;;;27.40;24.42;;;;;;;;;;5065296;28;20051;-84
2022/03/16 06:23:00;;;;;;;27.27;24.38;;;;;;;;;;5068217;28;20049;-85
2022/03/16 06:25:26;;;;;;;26.88;23.98;;;;;;;;;;5069872;28;20462;-85
2022/03/16 06:27:52;;;;;;;27.42;24.42;;;;;;;;;;5062390;28;20102;-86
2022/03/16 06:30:18;;;;;;;26.70;23.90;;;;;;;;;;5062519;28;20048;-85
2022/03/16 06:32:45;;;;;;;28.10;24.02;;;;;;;;;;5049592;28;20047;-86
2022/03/16 06:35:12;;;;;;;27.77;24.80;;;;;;;;;;5051425;28;20040;-85
2022/03/16 06:37:38;;;;;;;26.63;23.83;;;;;;;;;;5050998;28;20091;-86
2022/03/16 06:40:05;;;;;;;27.60;24.33;;;;;;;;;;5044609;28;20437;-85
2022/03/16 06:42:31;;;;;;;26.52;23.65;;;;;;;;;;5051714;28;20418;-85
2022/03/16 06:44:57;;;;;;;27.25;24.45;;;;;;;;;;5066409;28;20109;-84
2022/03/16 06:47:23;;;;;;;27.77;24.88;;;;;;;;;;5049062;28;20048;-84
2022/03/16 06:49:49;;;;;;;28.40;24.70;;;;;;;;;;5046574;28;20041;-83
2022/03/16 06:52:18;;;;;;;28.00;25.05;;;;;;;;;;5058744;28;20040;-83
2022/03/16 06:54:44;;;;;;;30.70;26.52;;;;;;;;;;5049091;28;20150;-85
2022/03/16 06:57:11;;;;;;;27.88;24.88;;;;;;;;;;5070167;28;20070;-84
2022/03/16 06:59:37;;;;;;;27.13;24.25;;;;;;;;;;5045783;28;20047;-85
2022/03/16 07:02:03;;;;;;;30.33;25.40;;;;;;;;;;5048939;28;20049;-87
2022/03/16 07:04:32;;;;;;;26.80;24.00;;;;;;;;;;5079352;28;20080;-85
2022/03/16 07:06:58;;;;;;;26.95;24.08;;;;;;;;;;5072574;28;20041;-86
2022/03/16 07:09:24;;;;;;;28.25;25.25;;;;;;;;;;5066183;28;20045;-87
2022/03/16 07:11:50;;;;;;;29.63;26.42;;;;;;;;;;5051847;28;20052;-85
2022/03/16 07:14:31;;;;;;;29.48;24.92;;;;;;;;;;5070027;28;20122;-85
2022/03/16 07:16:58;;;;;;;28.40;25.35;;;;;;;;;;5059750;28;20036;-85
2022/03/16 07:19:26;;;;;;;28.10;25.17;;;;;;;;;;5065632;28;20119;-85
2022/03/16 07:21:52;;;;;;;27.25;24.45;;;;;;;;;;5066542;28;20090;-84
2022/03/16 07:24:18;;;;;;;27.77;24.98;;;;;;;;;;5063387;28;20086;-85
2022/03/16 07:26:44;;;;;;;28.85;25.42;;;;;;;;;;5048236;28;20044;-85
2022/03/16 07:29:10;;;;;;;27.42;24.67;;;;;;;;;;5044928;28;20413;-85
2022/03/16 07:31:37;;;;;;;27.75;24.95;;;;;;;;;;5069324;28;20041;-86
2022/03/16 07:34:03;;;;;;;29.35;26.35;;;;;;;;;;5052494;28;20044;-87
2022/03/16 07:36:33;;;;;;;27.25;24.35;;;;;;;;;;5050362;28;20147;-87
2022/03/16 07:38:59;;;;;;;27.35;24.40;;;;;;;;;;5063349;28;20044;-87
2022/03/16 07:41:25;;;;;;;26.92;24.23;;;;;;;;;;5046747;28;20056;-86
2022/03/16 07:43:52;;;;;;;28.65;25.65;;;;;;;;;;5063487;28;20055;-85
2022/03/16 07:46:18;;;;;;;28.80;25.80;;;;;;;;;;5065291;28;20037;-86
2022/03/16 07:48:45;;;;;;;28.25;25.25;;;;;;;;;;5068689;28;20098;-86
2022/03/16 07:51:12;;;;;;;28.48;25.42;;;;;;;;;;5071084;28;20070;-86
2022/03/16 07:53:38;;;;;;;29.10;25.92;;;;;;;;;;5047042;28;20472;-86
2022/03/16 07:56:04;;;;;;;29.70;26.60;;;;;;;;;;5048461;28;20044;-85
2022/03/16 07:58:30;;;;;;;29.88;26.77;;;;;;;;;;5067648;28;20120;-85
2022/03/16 08:00:56;;;;;;;30.25;27.00;;;;;;;;;;5065787;28;20120;-85
2022/03/16 08:03:22;;;;;;;29.50;26.30;;;;;;;;;;5065310;28;20491;-84
2022/03/16 08:05:48;;;;;;;30.48;27.20;;;;;;;;;;5067143;28;20043;-84
2022/03/16 08:08:16;;;;;;;31.35;27.98;;;;;;;;;;5048912;28;20047;-85
2022/03/16 08:10:42;;;;;;;30.65;27.48;;;;;;;;;;5069115;28;20396;-85
2022/03/16 08:13:08;;;;;;;33.33;29.70;;;;;;;;;;5044945;28;20052;-85
2022/03/16 08:15:34;;;;;;;33.58;28.58;;;;;;;;;;5052685;28;20040;-84
2022/03/16 08:18:00;;;;;;;31.98;27.63;;;;;;;;;;5051338;28;20048;-85
2022/03/16 08:20:26;;;;;;;31.42;28.02;;;;;;;;;;5047845;28;20503;-86
2022/03/16 08:22:56;;;;;;;32.00;28.52;;;;;;;;;;5067982;28;20044;-85
2022/03/16 08:25:22;;;;;;;30.40;27.10;;;;;;;;;;5050780;28;20416;-85
2022/03/16 08:27:48;;;;;;;31.15;27.80;;;;;;;;;;5051140;28;20040;-85
2022/03/16 08:30:15;;;;;;;31.98;27.45;;;;;;;;;;5068577;28;20047;-85
2022/03/16 08:32:42;;;;;;;30.90;27.55;;;;;;;;;;5066976;28;20048;-84
2022/03/16 08:35:08;;;;;;;29.95;26.83;;;;;;;;;;5049072;28;20054;-85
2022/03/16 08:37:34;;;;;;;32.15;28.45;;;;;;;;;;5068755;28;20032;-84
2022/03/16 08:40:01;;;;;;;33.00;29.55;;;;;;;;;;5068893;28;20048;-84
2022/03/16 08:42:27;;;;;;;31.10;27.30;;;;;;;;;;5069739;28;20095;-84
2022/03/16 08:44:53;;;;;;;31.33;27.92;;;;;;;;;;5069401;28;20088;-84
2022/03/16 08:47:20;;;;;;;32.10;28.55;;;;;;;;;;5046948;28;20036;-85
2022/03/16 08:49:47;;;;;;;34.65;29.90;;;;;;;;;;5050376;28;20377;-85
2022/03/16 08:52:13;;;;;;;35.40;30.42;;;;;;;;;;5046133;28;20426;-85
2022/03/16 08:54:40;;;;;;;35.00;31.13;;;;;;;;;;5069943;28;20041;-85
2022/03/16 08:57:08;;;;;;;31.98;28.58;;;;;;;;;;5051468;28;20135;-84
2022/03/16 08:59:37;;;;;;;32.10;28.30;;;;;;;;;;5066002;28;20492;-85
2022/03/16 09:02:03;;;;;;;28.50;25.63;;;;;;;;;;5064939;28;20040;-85
2022/03/16 09:04:30;;;;;;;28.70;25.85;;;;;;;;;;5067459;28;20408;-84
2022/03/16 09:06:56;;;;;;;27.63;24.92;;;;;;;;;;5067550;28;20041;-85
2022/03/16 09:09:22;;;;;;;23.40;21.02;;;;;;;;;;5064350;28;20045;-85
2022/03/16 09:11:49;;;;;;;24.42;21.92;;;;;;;;;;5067932;28;20392;-86
2022/03/16 09:14:15;;;;;;;23.05;20.63;;;;;;;;;;5068235;28;20049;-86
2022/03/16 09:16:41;;;;;;;21.85;19.65;;;;;;;;;;5060302;28;20052;-86
2022/03/16 09:19:07;;;;;;;19.83;17.83;;;;;;;;;;5056002;28;20044;-84
2022/03/16 09:21:34;;;;;;;19.40;17.45;;;;;;;;;;5054159;28;20053;-86
2022/03/16 09:24:01;;;;;;;18.20;16.17;;;;;;;;;;5074094;28;20049;-85
2022/03/16 09:26:28;;;;;;;18.67;16.77;;;;;;;;;;5046302;28;20120;-89
2022/03/16 09:28:55;;;;;;;19.33;17.08;;;;;;;;;;5048248;28;20040;-86
2022/03/16 09:31:22;;;;;;;17.13;15.50;;;;;;;;;;5066567;28;20093;-86
2022/03/16 09:33:48;;;;;;;16.08;14.48;;;;;;;;;;5066853;28;20123;-89
2022/03/16 09:36:14;;;;;;;15.75;14.15;;;;;;;;;;5076320;28;20127;-90
2022/03/16 09:38:40;;;;;;;17.08;15.25;;;;;;;;;;5071535;28;20040;-91
2022/03/16 09:41:06;;;;;;;14.35;13.02;;;;;;;;;;5081010;28;20041;-87
2022/03/16 09:43:37;;;;;;;14.27;12.77;;;;;;;;;;5080349;28;20040;-87
2022/03/16 09:46:07;;;;;;;14.20;12.80;;;;;;;;;;5055749;28;20048;-90
2022/03/16 09:48:34;;;;;;;14.25;12.85;;;;;;;;;;5045574;28;20083;-91
2022/03/16 09:51:00;;;;;;;13.73;11.93;;;;;;;;;;5074062;28;20037;-91
2022/03/16 09:53:26;;;;;;;13.75;12.25;;;;;;;;;;5074826;28;20044;-92
2022/03/16 09:55:57;;;;;;;13.18;11.57;;;;;;;;;;5067649;28;20096;-91
2022/03/16 09:58:23;;;;;;;12.73;11.23;;;;;;;;;;5068890;28;20431;-90
2022/03/16 10:00:52;;;;;;;13.02;11.30;;;;;;;;;;5072730;28;20052;-89
2022/03/16 10:03:25;;;;;;;13.10;11.80;;;;;;;;;;5061643;28;20068;-88
2022/03/16 10:05:51;;;;;;;12.95;11.70;;;;;;;;;;5059657;28;20082;-86
2022/03/16 10:08:27;;;;;;;13.55;12.13;;;;;;;;;;5071993;28;20049;-86
2022/03/16 10:13:48;;;;;;;11.90;10.63;;;;;;;;;;5071549;28;20562;-86
2022/03/16 10:16:14;;;;;;;12.13;10.75;;;;;;;;;;5071902;28;20496;-86
2022/03/16 10:18:46;;;;;;;12.70;10.80;;;;;;;;;;5071482;28;20142;-85
2022/03/16 10:21:13;;;;;;;11.77;9.55;;;;;;;;;;5047220;28;20519;-87
2022/03/16 10:23:40;;;;;;;11.77;10.60;;;;;;;;;;5054225;28;20044;-85
2022/03/16 10:26:06;;;;;;;11.27;10.02;;;;;;;;;;5065455;28;20040;-85
2022/03/16 10:28:33;;;;;;;11.57;10.07;;;;;;;;;;5054502;28;20041;-85
2022/03/16 10:30:59;;;;;;;12.20;10.70;;;;;;;;;;5048968;28;20041;-85
2022/03/16 10:33:32;;;;;;;10.73;9.63;;;;;;;;;;5053399;28;20062;-82
2022/03/16 10:36:06;;;;;;;9.52;8.52;;;;;;;;;;5054460;28;20048;-86
2022/03/16 10:38:50;;;;;;;11.55;10.40;;;;;;;;;;5046449;28;20131;-85
2022/03/16 10:46:34;;;;;;;11.40;9.55;;;;;;;;;;5068219;28;20045;-86
2022/03/16 10:46:52;;;;;;;10.65;9.55;;;;;;;;;;5054422;28;20098;-84
2022/03/16 10:49:26;;;;;;;9.63;8.70;;;;;;;;;;5070416;28;20040;-85
2022/03/16 10:52:14;;;;;;;11.10;9.88;;;;;;;;;;5070113;28;20052;-83
2022/03/16 10:54:40;;;;;;;10.10;9.10;;;;;;;;;;5050949;28;20581;-83
2022/03/16 10:57:10;;;;;;;8.68;7.78;;;;;;;;;;5048492;28;20040;-83
2022/03/16 10:59:36;;;;;;;9.80;8.25;;;;;;;;;;5047141;28;20040;-83
2022/03/16 11:02:12;;;;;;;9.82;8.55;;;;;;;;;;5049417;28;20044;-83
2022/03/16 11:04:38;;;;;;;9.52;7.93;;;;;;;;;;5063932;28;20134;-84
2022/03/16 11:07:05;;;;;;;9.32;8.27;;;;;;;;;;5064121;28;20091;-86
2022/03/16 11:09:31;;;;;;;9.95;8.95;;;;;;;;;;5056178;28;20511;-87
2022/03/16 11:14:44;;;;;;;9.88;8.88;;;;;;;;;;5040550;28;20495;-85
2022/03/16 11:17:11;;;;;;;9.48;8.48;;;;;;;;;;5066219;28;20049;-85
2022/03/16 11:19:37;;;;;;;8.48;7.50;;;;;;;;;;5050197;28;20037;-84
2022/03/16 11:22:06;;;;;;;11.25;9.13;;;;;;;;;;5052987;28;20040;-84
2022/03/16 11:24:36;;;;;;;10.45;9.35;;;;;;;;;;5050862;28;20143;-85
2022/03/16 11:27:12;;;;;;;9.13;8.23;;;;;;;;;;5072451;28;20048;-83
2022/03/16 11:29:58;;;;;;;9.75;8.73;;;;;;;;;;5061145;28;20055;-84
2022/03/16 11:32:24;;;;;;;9.60;8.45;;;;;;;;;;5064829;28;20132;-84
2022/03/16 11:34:59;;;;;;;9.70;8.73;;;;;;;;;;5044895;28;20682;-83
2022/03/16 11:37:37;;;;;;;7.80;6.88;;;;;;;;;;5052256;28;20048;-84
2022/03/16 11:40:09;;;;;;;8.75;7.85;;;;;;;;;;5062627;28;20079;-83
2022/03/16 11:42:39;;;;;;;8.60;7.80;;;;;;;;;;5064673;28;20052;-84
2022/03/16 11:45:25;;;;;;;8.45;7.55;;;;;;;;;;5054976;28;20044;-83
2022/03/16 11:47:51;;;;;;;8.68;7.88;;;;;;;;;;5064290;28;20052;-83
2022/03/16 11:50:19;;;;;;;9.00;7.88;;;;;;;;;;5062208;28;20045;-83
2022/03/16 11:52:59;;;;;;;8.07;7.28;;;;;;;;;;5059183;28;20041;-84
2022/03/16 11:55:44;;;;;;;8.70;7.80;;;;;;;;;;5051419;28;20048;-83
2022/03/16 11:58:35;;;;;;;7.93;7.13;;;;;;;;;;5068110;28;20055;-82
2022/03/16 12:01:20;;;;;;;9.10;8.20;;;;;;;;;;5065207;28;20051;-85
2022/03/16 12:03:46;;;;;;;8.55;7.70;;;;;;;;;;5070155;28;20040;-86
2022/03/16 12:06:12;;;;;;;8.15;7.35;;;;;;;;;;5054758;28;20112;-85
2022/03/16 12:08:51;;;;;;;8.23;7.43;;;;;;;;;;5053014;28;20047;-87
2022/03/16 12:14:06;;;;;;;7.47;6.78;;;;;;;;;;5065597;28;20057;-85
2022/03/16 12:16:42;;;;;;;7.80;7.07;;;;;;;;;;5064896;28;20048;-87
2022/03/16 12:19:29;;;;;;;8.32;6.80;;;;;;;;;;5056796;28;20059;-89
2022/03/16 12:22:11;;;;;;;7.55;6.80;;;;;;;;;;5072406;28;20041;-89
2022/03/16 12:30:12;;;;;;;8.43;6.88;;;;;;;;;;5050070;28;20040;-87
2022/03/16 12:32:38;;;;;;;8.05;6.93;;;;;;;;;;5068014;28;20036;-85
2022/03/16 12:35:05;;;;;;;7.68;6.97;;;;;;;;;;5065976;28;20361;-87
2022/03/16 12:37:31;;;;;;;9.05;6.88;;;;;;;;;;5065418;28;20544;-86
2022/03/16 12:39:57;;;;;;;7.57;6.88;;;;;;;;;;5062091;28;20540;-87
2022/03/16 12:42:33;;;;;;;7.63;6.93;;;;;;;;;;5072501;28;20100;-86
2022/03/16 12:45:19;;;;;;;8.07;7.28;;;;;;;;;;5061608;28;20395;-85
2022/03/16 12:47:58;;;;;;;7.90;6.72;;;;;;;;;;5036560;28;20071;-86
2022/03/16 12:50:27;;;;;;;7.70;7.00;;;;;;;;;;5060890;28;20479;-86
2022/03/16 12:52:53;;;;;;;7.78;7.07;;;;;;;;;;5055694;28;20268;-84
2022/03/16 12:55:19;;;;;;;8.77;7.75;;;;;;;;;;5073937;28;20495;-86
2022/03/16 12:57:55;;;;;;;8.23;7.43;;;;;;;;;;5052148;28;20388;-86
2022/03/16 13:00:21;;;;;;;7.97;7.25;;;;;;;;;;5072238;28;20519;-87
2022/03/16 13:02:47;;;;;;;7.47;6.78;;;;;;;;;;5069040;28;20036;-85
2022/03/16 13:05:18;;;;;;;7.93;7.13;;;;;;;;;;5066798;28;20048;-85
2022/03/16 13:07:45;;;;;;;8.70;7.90;;;;;;;;;;5068273;28;20064;-86
2022/03/16 13:10:11;;;;;;;8.98;8.07;;;;;;;;;;5070310;28;20424;-86
2022/03/16 13:12:41;;;;;;;8.20;7.40;;;;;;;;;;5068775;28;20147;-87
2022/03/16 13:15:08;;;;;;;8.73;7.85;;;;;;;;;;5069728;28;20048;-86
2022/03/16 13:17:37;;;;;;;8.07;7.28;;;;;;;;;;5060815;28;20044;-87
2022/03/16 13:20:04;;;;;;;7.55;6.72;;;;;;;;;;5070127;28;20037;-88
2022/03/16 13:22:30;;;;;;;9.27;7.07;;;;;;;;;;5072300;28;20052;-87
2022/03/16 13:24:58;;;;;;;7.95;7.25;;;;;;;;;;5041247;28;20053;-87
2022/03/16 13:27:35;;;;;;;8.30;7.50;;;;;;;;;;5072487;28;20076;-87
2022/03/16 13:30:03;;;;;;;7.80;7.00;;;;;;;;;;5082009;28;20080;-85
2022/03/16 13:32:41;;;;;;;8.70;7.80;;;;;;;;;;5069384;28;20118;-87
2022/03/16 13:35:21;;;;;;;7.68;6.97;;;;;;;;;;5070300;28;20056;-87
2022/03/16 13:38:00;;;;;;;8.25;7.20;;;;;;;;;;5051220;28;20071;-86
2022/03/16 13:40:27;;;;;;;7.85;7.05;;;;;;;;;;5070148;28;20041;-89
2022/03/16 13:43:07;;;;;;;7.93;7.13;;;;;;;;;;5072794;28;20064;-88
2022/03/16 13:46:00;;;;;;;8.38;6.93;;;;;;;;;;5042325;28;20044;-88
2022/03/16 13:48:32;;;;;;;8.93;7.47;;;;;;;;;;5052631;28;20168;-90
2022/03/16 13:51:00;;;;;;;8.05;7.25;;;;;;;;;;5043580;28;20454;-84
2022/03/16 13:53:28;;;;;;;8.20;7.40;;;;;;;;;;5071898;28;20044;-86
2022/03/16 13:55:55;;;;;;;8.40;7.50;;;;;;;;;;5073807;28;20136;-86
2022/03/16 13:58:24;;;;;;;8.93;7.93;;;;;;;;;;5062667;28;20060;-86
2022/03/16 14:00:52;;;;;;;8.55;7.72;;;;;;;;;;5078790;28;20438;-85
2022/03/16 14:03:22;;;;;;;8.60;7.70;;;;;;;;;;5053389;28;20132;-88
2022/03/16 14:05:48;;;;;;;8.73;7.93;;;;;;;;;;5062996;28;20516;-85
2022/03/16 14:08:14;;;;;;;8.05;7.25;;;;;;;;;;5064795;28;20040;-85
2022/03/16 14:10:41;;;;;;;9.48;7.85;;;;;;;;;;5044872;28;20118;-84
2022/03/16 14:13:11;;;;;;;8.50;7.70;;;;;;;;;;5062565;28;20156;-86
2022/03/16 14:15:37;;;;;;;8.80;7.78;;;;;;;;;;5061027;28;20089;-80
2022/03/16 14:18:14;;;;;;;8.63;7.72;;;;;;;;;;5053498;28;20033;-86
2022/03/16 14:20:43;;;;;;;8.63;7.72;;;;;;;;;;5064673;28;20387;-85
2022/03/16 14:23:09;;;;;;;8.77;7.97;;;;;;;;;;5055378;28;20033;-86
2022/03/16 14:25:37;;;;;;;8.65;7.75;;;;;;;;;;5068637;28;20047;-84
2022/03/16 14:28:04;;;;;;;8.57;7.78;;;;;;;;;;5057252;28;20114;-85
2022/03/16 14:30:34;;;;;;;9.20;8.20;;;;;;;;;;5057856;28;20049;-86
2022/03/16 14:33:02;;;;;;;9.55;8.57;;;;;;;;;;5044750;28;20632;-84
2022/03/16 14:35:36;;;;;;;8.85;7.95;;;;;;;;;;5078389;28;20041;-86
2022/03/16 14:38:05;;;;;;;9.30;8.25;;;;;;;;;;5078177;28;20045;-85
2022/03/16 14:40:35;;;;;;;8.90;8.00;;;;;;;;;;5057266;28;20064;-86
2022/03/16 14:43:02;;;;;;;10.05;8.93;;;;;;;;;;5076402;28;20052;-85
2022/03/16 14:45:28;;;;;;;9.85;8.95;;;;;;;;;;5068805;28;20076;-86